createdAt,value
2019-01-05T00:02:19.084Z,29.23
2019-01-05T00:07:34.328Z,28.93
2019-01-05T00:13:08.488Z,28.40
2019-01-05T00:18:31.689Z,28.53
2019-01-05T00:23:58.624Z,28.93
2019-01-05T00:29:22.063Z,29.00
2019-01-05T00:35:02.814Z,27.40
2019-01-05T00:40:24.916Z,29.00
2019-01-05T00:45:47.518Z,29.10
2019-01-05T00:51:12.118Z,29.17
2019-01-05T00:56:38.754Z,27.30
2019-01-05T01:02:00.852Z,28.13
2019-01-05T01:07:22.961Z,26.80
2019-01-05T01:12:49.246Z,28.33
2019-01-05T01:18:11.654Z,27.57
2019-01-05T01:23:44.091Z,28.47
2019-01-05T01:29:06.595Z,27.43
2019-01-05T01:34:39.073Z,26.53
2019-01-05T01:40:03.973Z,25.83
2019-01-05T01:45:26.044Z,26.37
2019-01-05T01:50:56.529Z,25.90
2019-01-05T01:56:20.410Z,26.77
2019-01-05T02:01:42.683Z,23.87
2019-01-05T02:07:07.304Z,26.27
2019-01-05T02:12:31.174Z,25.73
2019-01-05T02:18:12.552Z,27.80
2019-01-05T02:24:16.558Z,27.60
2019-01-05T02:30:34.004Z,28.80
2019-01-05T02:36:33.154Z,28.33
2019-01-05T02:42:29.150Z,28.83
2019-01-05T02:48:43.767Z,29.10
2019-01-05T02:54:36.081Z,36.65
2019-01-05T03:00:45.193Z,29.83
2019-01-05T03:06:50.409Z,27.73
2019-01-05T03:12:45.768Z,27.73
2019-01-05T03:18:53.987Z,27.37
2019-01-05T03:24:32.718Z,28.87
2019-01-05T03:30:34.130Z,27.50
2019-01-05T03:36:50.686Z,25.83
2019-01-05T03:42:52.523Z,28.10
2019-01-05T03:49:09.072Z,26.00
2019-01-05T03:55:19.790Z,27.70
2019-01-05T04:01:35.627Z,27.77
2019-01-05T04:07:37.594Z,26.03
2019-01-05T04:13:39.793Z,25.83
2019-01-05T04:20:03.461Z,26.50
2019-01-05T04:26:23.800Z,24.70
2019-01-05T04:32:34.023Z,27.00
2019-01-05T04:39:02.917Z,25.37
2019-01-05T04:45:24.864Z,26.30
2019-01-05T04:51:43.778Z,25.80
2019-01-05T04:57:44.230Z,25.67
2019-01-05T05:04:06.384Z,24.80
2019-01-05T05:09:57.281Z,25.37
2019-01-05T05:16:07.530Z,25.97
2019-01-05T05:22:31.028Z,25.47
2019-01-05T05:28:52.812Z,26.77
2019-01-05T05:34:52.197Z,26.13
2019-01-05T05:41:02.476Z,27.33
2019-01-05T05:47:07.309Z,25.03
2019-01-05T05:53:20.531Z,25.97
2019-01-05T05:59:23.573Z,25.23
2019-01-05T06:05:29.706Z,27.23
2019-01-05T06:11:50.177Z,25.77
2019-01-05T06:18:02.207Z,26.53
2019-01-05T06:23:58.554Z,27.63
2019-01-05T06:30:02.966Z,25.80
2019-01-05T06:35:59.817Z,24.40
2019-01-05T06:42:01.114Z,23.83
2019-01-05T06:47:42.498Z,25.87
2019-01-05T06:53:53.030Z,26.67
2019-01-05T07:00:17.134Z,25.17
2019-01-05T07:06:25.977Z,25.57
2019-01-05T07:12:29.484Z,25.70
2019-01-05T07:18:27.076Z,25.20
2019-01-05T07:24:53.901Z,23.77
2019-01-05T07:31:04.177Z,25.23
2019-01-05T07:36:58.461Z,25.03
2019-01-05T07:43:03.814Z,30.10
2019-01-05T07:48:57.578Z,35.00
2019-01-05T07:55:08.361Z,25.10
2019-01-05T08:01:28.821Z,26.20
2019-01-05T08:07:21.297Z,27.17
2019-01-05T08:13:44.217Z,32.60
2019-01-05T08:20:02.076Z,23.47
2019-01-05T08:26:24.011Z,25.07
2019-01-05T08:32:34.362Z,25.07
2019-01-05T08:38:25.122Z,25.03
2019-01-05T08:44:22.681Z,34.55
2019-01-05T08:50:43.305Z,29.98
2019-01-05T08:56:51.297Z,25.00
2019-01-05T09:02:56.545Z,25.30
2019-01-05T09:09:18.925Z,25.40
2019-01-05T09:15:16.393Z,25.53
2019-01-05T09:21:20.980Z,22.47
2019-01-05T09:27:35.991Z,22.40
2019-01-05T09:33:53.467Z,25.20
2019-01-05T09:40:15.167Z,23.37
2019-01-05T09:46:11.506Z,22.90
2019-01-05T09:52:10.454Z,23.37
2019-01-05T09:58:20.587Z,23.93
2019-01-05T10:04:57.767Z,25.17
2019-01-05T10:11:23.735Z,24.93
2019-01-05T10:17:22.615Z,25.30
2019-01-05T10:23:24.414Z,27.10
2019-01-05T10:29:44.089Z,26.17
2019-01-05T10:36:00.281Z,24.40
2019-01-05T10:42:04.739Z,25.97
2019-01-05T10:48:35.697Z,23.87
2019-01-05T10:54:33.727Z,26.17
2019-01-05T11:00:29.350Z,23.40
2019-01-05T11:06:29.584Z,24.37
2019-01-05T11:12:43.553Z,25.10
2019-01-05T11:19:26.579Z,22.00
2019-01-05T11:25:29.698Z,19.30
2019-01-05T11:31:50.361Z,16.63
2019-01-05T11:37:34.479Z,15.73
2019-01-05T11:43:45.184Z,13.27
2019-01-05T11:50:08.965Z,13.23
2019-01-05T11:56:13.572Z,13.17
2019-01-05T12:02:19.622Z,13.37
2019-01-05T12:08:28.287Z,12.40
2019-01-05T12:14:27.110Z,11.13
2019-01-05T12:20:41.484Z,13.60
2019-01-05T12:27:13.723Z,11.97
2019-01-05T12:33:05.743Z,13.60
2019-01-05T12:39:29.805Z,13.13
2019-01-05T12:45:32.427Z,15.43
2019-01-05T12:51:55.175Z,14.27
2019-01-05T12:58:00.653Z,9.93
2019-01-05T13:04:09.923Z,11.00
2019-01-05T13:10:33.357Z,12.00
2019-01-05T13:17:07.697Z,12.90
2019-01-05T13:23:17.882Z,12.57
2019-01-05T13:29:18.853Z,11.83
2019-01-05T13:35:23.169Z,11.70
2019-01-05T13:41:44.186Z,12.37
2019-01-05T13:48:00.396Z,12.73
2019-01-05T13:53:54.936Z,12.27
2019-01-05T13:59:19.782Z,12.80
2019-01-05T14:04:39.802Z,12.87
2019-01-05T14:10:01.720Z,12.87
2019-01-05T14:15:28.380Z,11.73
2019-01-05T14:20:57.932Z,13.03
2019-01-05T14:26:24.497Z,13.40
2019-01-05T14:31:50.787Z,12.80
2019-01-05T14:37:32.531Z,13.90
2019-01-05T14:42:54.143Z,13.63
2019-01-05T14:48:35.598Z,14.17
2019-01-05T14:53:59.065Z,13.87
2019-01-05T14:59:21.044Z,12.77
2019-01-05T15:04:43.106Z,12.33
2019-01-05T15:10:02.799Z,13.40
2019-01-05T15:15:24.714Z,13.63
2019-01-05T15:20:51.212Z,15.37
2019-01-05T15:26:26.579Z,16.80
2019-01-05T15:31:56.111Z,14.33
2019-01-05T15:37:18.296Z,12.57
2019-01-05T15:42:40.126Z,12.77
2019-01-05T15:48:00.812Z,14.98
2019-01-05T15:53:22.692Z,15.33
2019-01-05T15:58:52.220Z,15.98
2019-01-05T16:04:30.741Z,15.83
2019-01-05T16:09:52.565Z,13.33
2019-01-05T16:15:31.185Z,12.43
2019-01-05T16:20:53.402Z,12.93
2019-01-05T16:26:22.847Z,15.10
2019-01-05T16:31:46.345Z,15.65
2019-01-05T16:37:25.045Z,12.30
2019-01-05T16:42:54.586Z,12.67
2019-01-05T16:48:16.880Z,11.83
2019-01-05T16:53:43.338Z,12.43
2019-01-05T16:59:09.859Z,11.90
2019-01-05T17:04:45.241Z,12.67
2019-01-05T17:10:11.730Z,11.83
2019-01-05T17:15:35.220Z,13.73
2019-01-05T17:20:57.228Z,13.30
2019-01-05T17:26:19.260Z,16.50
2019-01-05T17:31:54.762Z,18.23
2019-01-05T17:37:27.898Z,13.63
2019-01-05T17:42:48.162Z,14.83
2019-01-05T17:48:23.522Z,17.73
2019-01-05T17:53:45.644Z,15.47
2019-01-05T17:59:09.017Z,15.83
2019-01-05T18:04:30.903Z,16.07
2019-01-05T18:09:54.439Z,17.73
2019-01-05T18:15:20.698Z,17.20
2019-01-05T18:20:59.134Z,19.17
2019-01-05T18:26:37.763Z,20.13
2019-01-05T18:32:16.216Z,20.97
2019-01-05T18:37:45.687Z,25.82
2019-01-05T18:43:23.000Z,26.43
2019-01-05T18:49:01.689Z,20.80
2019-01-05T18:54:23.898Z,20.03
2019-01-05T18:59:40.738Z,19.77
2019-01-05T19:05:02.786Z,19.47
2019-01-05T19:10:28.233Z,20.50
2019-01-05T19:15:54.933Z,19.53
2019-01-05T19:21:18.484Z,18.87
2019-01-05T19:26:44.977Z,20.07
2019-01-05T19:32:06.806Z,18.67
2019-01-05T19:37:33.636Z,18.80
2019-01-05T19:42:56.668Z,17.53
2019-01-05T19:48:20.153Z,18.33
2019-01-05T19:53:41.948Z,19.70
2019-01-05T19:59:04.282Z,18.63
2019-01-05T20:04:26.758Z,21.93
2019-01-05T20:10:02.329Z,19.33
2019-01-05T20:15:24.311Z,24.07
2019-01-05T20:20:56.627Z,18.60
2019-01-05T20:26:26.125Z,18.27
2019-01-05T20:31:49.633Z,18.03
2019-01-05T20:37:28.273Z,19.43
2019-01-05T20:43:08.643Z,18.13
2019-01-05T20:48:47.212Z,23.92
2019-01-05T20:54:10.713Z,18.97
2019-01-05T20:59:43.279Z,17.93
2019-01-05T21:05:06.871Z,23.02
2019-01-05T21:10:36.401Z,22.50
2019-01-05T21:15:58.517Z,19.10
2019-01-05T21:21:20.778Z,17.37
2019-01-05T21:26:56.331Z,19.03
2019-01-05T21:32:19.820Z,20.03
2019-01-05T21:37:41.058Z,20.13
2019-01-05T21:43:13.614Z,18.97
2019-01-05T21:48:55.261Z,18.73
2019-01-05T21:54:29.342Z,18.97
2019-01-05T21:59:55.487Z,17.00
2019-01-05T22:05:19.126Z,16.97
2019-01-05T22:10:42.656Z,16.70
2019-01-05T22:15:59.901Z,17.33
2019-01-05T22:21:38.240Z,18.20
2019-01-05T22:27:07.517Z,16.97
2019-01-05T22:32:29.693Z,18.73
2019-01-05T22:37:53.243Z,19.63
2019-01-05T22:43:27.626Z,20.87
2019-01-05T22:48:51.214Z,20.53
2019-01-05T22:54:13.419Z,19.47
2019-01-05T22:59:51.755Z,20.10
2019-01-05T23:05:13.931Z,23.23
2019-01-05T23:10:36.089Z,20.60
2019-01-05T23:16:11.788Z,21.07
2019-01-05T23:21:31.668Z,21.20
2019-01-05T23:27:01.416Z,22.17
2019-01-05T23:32:32.719Z,20.63
2019-01-05T23:37:54.827Z,21.50
2019-01-05T23:43:19.264Z,22.93
2019-01-05T23:48:41.161Z,21.43
2019-01-05T23:54:19.581Z,23.87
2019-01-05T23:59:39.785Z,23.43
